sensor_id;sensor_type;location;lat;lon;timestamp;temperature;humidity
65074;DHT22;52218;51.224;-2.328;2023-02-04T00:01:43;9.00;99.90
65074;DHT22;52218;51.224;-2.328;2023-02-04T00:05:25;8.90;99.90
65074;DHT22;52218;51.224;-2.328;2023-02-04T00:09:07;8.90;99.90
65074;DHT22;52218;51.224;-2.328;2023-02-04T00:12:49;8.90;99.90
65074;DHT22;52218;51.224;-2.328;2023-02-04T00:16:31;8.90;99.90
65074;DHT22;52218;51.224;-2.328;2023-02-04T00:20:13;8.90;99.90
65074;DHT22;52218;51.224;-2.328;2023-02-04T00:23:55;8.90;99.90
65074;DHT22;52218;51.224;-2.328;2023-02-04T00:27:38;8.90;99.90
65074;DHT22;52218;51.224;-2.328;2023-02-04T00:31:20;8.90;99.90
65074;DHT22;52218;51.224;-2.328;2023-02-04T00:35:02;8.90;99.90
65074;DHT22;52218;51.224;-2.328;2023-02-04T00:38:45;8.90;99.90
65074;DHT22;52218;51.224;-2.328;2023-02-04T00:42:27;8.90;99.90
65074;DHT22;52218;51.224;-2.328;2023-02-04T00:46:09;8.90;99.90
65074;DHT22;52218;51.224;-2.328;2023-02-04T00:49:51;8.90;99.90
65074;DHT22;52218;51.224;-2.328;2023-02-04T00:53:33;8.90;99.90
65074;DHT22;52218;51.224;-2.328;2023-02-04T00:57:15;8.80;99.90
65074;DHT22;52218;51.224;-2.328;2023-02-04T01:00:57;8.80;99.90
65074;DHT22;52218;51.224;-2.328;2023-02-04T01:04:39;8.80;99.90
65074;DHT22;52218;51.224;-2.328;2023-02-04T01:08:21;8.70;99.90
65074;DHT22;52218;51.224;-2.328;2023-02-04T01:12:03;8.80;99.90
65074;DHT22;52218;51.224;-2.328;2023-02-04T01:15:45;8.70;99.90
65074;DHT22;52218;51.224;-2.328;2023-02-04T01:19:27;8.70;99.90
65074;DHT22;52218;51.224;-2.328;2023-02-04T01:23:09;8.70;99.90
65074;DHT22;52218;51.224;-2.328;2023-02-04T01:26:51;8.70;99.90
65074;DHT22;52218;51.224;-2.328;2023-02-04T01:30:33;8.70;99.90
65074;DHT22;52218;51.224;-2.328;2023-02-04T01:34:15;8.70;99.90
65074;DHT22;52218;51.224;-2.328;2023-02-04T01:37:57;8.70;99.90
65074;DHT22;52218;51.224;-2.328;2023-02-04T01:41:39;8.70;99.90
65074;DHT22;52218;51.224;-2.328;2023-02-04T01:45:22;8.70;99.90
65074;DHT22;52218;51.224;-2.328;2023-02-04T01:49:05;8.70;99.90
65074;DHT22;52218;51.224;-2.328;2023-02-04T01:52:47;8.70;99.90
65074;DHT22;52218;51.224;-2.328;2023-02-04T01:56:30;8.70;99.90
65074;DHT22;52218;51.224;-2.328;2023-02-04T02:00:16;8.70;99.90
65074;DHT22;52218;51.224;-2.328;2023-02-04T02:04:00;8.80;99.90
65074;DHT22;52218;51.224;-2.328;2023-02-04T02:07:42;8.80;99.90
65074;DHT22;52218;51.224;-2.328;2023-02-04T02:11:25;8.80;99.90
65074;DHT22;52218;51.224;-2.328;2023-02-04T02:15:08;8.80;99.90
65074;DHT22;52218;51.224;-2.328;2023-02-04T02:18:51;8.80;99.90
65074;DHT22;52218;51.224;-2.328;2023-02-04T02:22:55;8.80;99.90
65074;DHT22;52218;51.224;-2.328;2023-02-04T02:26:38;8.90;99.90
65074;DHT22;52218;51.224;-2.328;2023-02-04T02:30:20;8.80;99.90
65074;DHT22;52218;51.224;-2.328;2023-02-04T02:34:03;8.80;99.90
65074;DHT22;52218;51.224;-2.328;2023-02-04T02:37:45;8.80;99.90
65074;DHT22;52218;51.224;-2.328;2023-02-04T02:41:27;8.90;99.90
65074;DHT22;52218;51.224;-2.328;2023-02-04T02:45:23;8.90;99.90
65074;DHT22;52218;51.224;-2.328;2023-02-04T02:49:07;8.80;99.90
65074;DHT22;52218;51.224;-2.328;2023-02-04T02:52:54;8.80;99.90
65074;DHT22;52218;51.224;-2.328;2023-02-04T02:56:36;8.90;99.90
65074;DHT22;52218;51.224;-2.328;2023-02-04T03:00:21;8.90;99.90
65074;DHT22;52218;51.224;-2.328;2023-02-04T03:04:04;8.90;99.90
65074;DHT22;52218;51.224;-2.328;2023-02-04T03:07:46;8.90;99.90
65074;DHT22;52218;51.224;-2.328;2023-02-04T03:11:29;8.80;99.90
65074;DHT22;52218;51.224;-2.328;2023-02-04T03:15:11;8.90;99.90
65074;DHT22;52218;51.224;-2.328;2023-02-04T03:18:54;8.80;99.90
65074;DHT22;52218;51.224;-2.328;2023-02-04T03:22:36;8.80;99.90
65074;DHT22;52218;51.224;-2.328;2023-02-04T03:26:19;8.80;99.90
65074;DHT22;52218;51.224;-2.328;2023-02-04T03:30:01;8.80;99.90
65074;DHT22;52218;51.224;-2.328;2023-02-04T03:33:43;8.80;99.90
65074;DHT22;52218;51.224;-2.328;2023-02-04T03:37:25;8.80;99.90
65074;DHT22;52218;51.224;-2.328;2023-02-04T03:41:07;8.80;99.90
65074;DHT22;52218;51.224;-2.328;2023-02-04T03:44:49;8.80;99.90
65074;DHT22;52218;51.224;-2.328;2023-02-04T03:48:31;8.80;99.90
65074;DHT22;52218;51.224;-2.328;2023-02-04T03:52:13;8.80;99.90
65074;DHT22;52218;51.224;-2.328;2023-02-04T03:55:55;8.80;99.90
65074;DHT22;52218;51.224;-2.328;2023-02-04T03:59:37;8.70;99.90
65074;DHT22;52218;51.224;-2.328;2023-02-04T04:03:19;8.70;99.90
65074;DHT22;52218;51.224;-2.328;2023-02-04T04:07:01;8.70;99.90
65074;DHT22;52218;51.224;-2.328;2023-02-04T04:10:43;8.70;99.90
65074;DHT22;52218;51.224;-2.328;2023-02-04T04:14:25;8.70;99.90
65074;DHT22;52218;51.224;-2.328;2023-02-04T04:18:07;8.70;99.90
65074;DHT22;52218;51.224;-2.328;2023-02-04T04:21:49;8.70;99.90
65074;DHT22;52218;51.224;-2.328;2023-02-04T04:25:31;8.70;99.90
65074;DHT22;52218;51.224;-2.328;2023-02-04T04:29:13;8.70;99.90
65074;DHT22;52218;51.224;-2.328;2023-02-04T04:32:55;8.70;99.90
65074;DHT22;52218;51.224;-2.328;2023-02-04T04:36:37;8.70;99.90
65074;DHT22;52218;51.224;-2.328;2023-02-04T04:40:19;8.70;99.90
65074;DHT22;52218;51.224;-2.328;2023-02-04T04:44:01;8.70;99.90
65074;DHT22;52218;51.224;-2.328;2023-02-04T04:47:43;8.70;99.90
65074;DHT22;52218;51.224;-2.328;2023-02-04T04:51:25;8.70;99.90
65074;DHT22;52218;51.224;-2.328;2023-02-04T04:55:07;8.60;99.90
65074;DHT22;52218;51.224;-2.328;2023-02-04T04:58:49;8.60;99.90
65074;DHT22;52218;51.224;-2.328;2023-02-04T05:02:32;8.60;99.90
65074;DHT22;52218;51.224;-2.328;2023-02-04T05:06:14;8.60;99.90
65074;DHT22;52218;51.224;-2.328;2023-02-04T05:09:56;8.60;99.90
65074;DHT22;52218;51.224;-2.328;2023-02-04T05:13:38;8.60;99.90
65074;DHT22;52218;51.224;-2.328;2023-02-04T05:17:20;8.60;99.90
65074;DHT22;52218;51.224;-2.328;2023-02-04T05:21:03;8.60;99.90
65074;DHT22;52218;51.224;-2.328;2023-02-04T05:24:45;8.60;99.90
65074;DHT22;52218;51.224;-2.328;2023-02-04T05:28:27;8.50;99.90
65074;DHT22;52218;51.224;-2.328;2023-02-04T05:32:09;8.50;99.90
65074;DHT22;52218;51.224;-2.328;2023-02-04T05:35:51;8.50;99.90
65074;DHT22;52218;51.224;-2.328;2023-02-04T05:39:33;8.50;99.90
65074;DHT22;52218;51.224;-2.328;2023-02-04T05:43:15;8.50;99.90
65074;DHT22;52218;51.224;-2.328;2023-02-04T05:46:57;8.50;99.90
65074;DHT22;52218;51.224;-2.328;2023-02-04T05:50:39;8.50;99.90
65074;DHT22;52218;51.224;-2.328;2023-02-04T05:54:21;8.50;99.90
65074;DHT22;52218;51.224;-2.328;2023-02-04T05:58:03;8.50;99.90
65074;DHT22;52218;51.224;-2.328;2023-02-04T06:01:45;8.50;99.90
65074;DHT22;52218;51.224;-2.328;2023-02-04T06:05:27;8.50;99.90
65074;DHT22;52218;51.224;-2.328;2023-02-04T06:09:09;8.50;99.90
65074;DHT22;52218;51.224;-2.328;2023-02-04T06:12:51;8.50;99.90
65074;DHT22;52218;51.224;-2.328;2023-02-04T06:16:33;8.50;99.90
65074;DHT22;52218;51.224;-2.328;2023-02-04T06:20:16;8.50;99.90
65074;DHT22;52218;51.224;-2.328;2023-02-04T06:23:58;8.50;99.90
65074;DHT22;52218;51.224;-2.328;2023-02-04T06:27:40;8.50;99.90
65074;DHT22;52218;51.224;-2.328;2023-02-04T06:31:22;8.50;99.90
65074;DHT22;52218;51.224;-2.328;2023-02-04T06:35:04;8.50;99.90
65074;DHT22;52218;51.224;-2.328;2023-02-04T06:38:46;8.50;99.90
65074;DHT22;52218;51.224;-2.328;2023-02-04T06:42:28;8.40;99.90
65074;DHT22;52218;51.224;-2.328;2023-02-04T06:46:10;8.40;99.90
65074;DHT22;52218;51.224;-2.328;2023-02-04T06:49:52;8.50;99.90
65074;DHT22;52218;51.224;-2.328;2023-02-04T06:53:34;8.40;99.90
65074;DHT22;52218;51.224;-2.328;2023-02-04T06:57:16;8.40;99.90
65074;DHT22;52218;51.224;-2.328;2023-02-04T07:00:58;8.50;99.90
65074;DHT22;52218;51.224;-2.328;2023-02-04T07:04:41;8.40;99.90
65074;DHT22;52218;51.224;-2.328;2023-02-04T07:08:24;8.50;99.90
65074;DHT22;52218;51.224;-2.328;2023-02-04T07:12:06;8.50;99.90
65074;DHT22;52218;51.224;-2.328;2023-02-04T07:15:48;8.50;99.90
65074;DHT22;52218;51.224;-2.328;2023-02-04T07:19:30;8.40;99.90
65074;DHT22;52218;51.224;-2.328;2023-02-04T07:23:12;8.40;99.90
65074;DHT22;52218;51.224;-2.328;2023-02-04T07:26:55;8.40;99.90
65074;DHT22;52218;51.224;-2.328;2023-02-04T07:30:39;8.40;99.90
65074;DHT22;52218;51.224;-2.328;2023-02-04T07:34:21;8.40;99.90
65074;DHT22;52218;51.224;-2.328;2023-02-04T07:38:04;8.30;99.90
65074;DHT22;52218;51.224;-2.328;2023-02-04T07:41:46;8.40;99.90
65074;DHT22;52218;51.224;-2.328;2023-02-04T07:45:29;8.30;99.90
65074;DHT22;52218;51.224;-2.328;2023-02-04T07:49:11;8.40;99.90
65074;DHT22;52218;51.224;-2.328;2023-02-04T07:52:53;8.30;99.90
65074;DHT22;52218;51.224;-2.328;2023-02-04T07:56:43;8.30;99.90
65074;DHT22;52218;51.224;-2.328;2023-02-04T08:00:25;8.40;99.90
65074;DHT22;52218;51.224;-2.328;2023-02-04T08:04:07;8.30;99.90
65074;DHT22;52218;51.224;-2.328;2023-02-04T08:07:49;8.40;99.90
65074;DHT22;52218;51.224;-2.328;2023-02-04T08:11:31;8.40;99.90
65074;DHT22;52218;51.224;-2.328;2023-02-04T08:15:13;8.40;99.90
65074;DHT22;52218;51.224;-2.328;2023-02-04T08:18:55;8.30;99.90
65074;DHT22;52218;51.224;-2.328;2023-02-04T08:22:37;8.40;99.90
65074;DHT22;52218;51.224;-2.328;2023-02-04T08:26:19;8.40;99.90
65074;DHT22;52218;51.224;-2.328;2023-02-04T08:30:02;8.40;99.90
65074;DHT22;52218;51.224;-2.328;2023-02-04T08:33:44;8.40;99.90
65074;DHT22;52218;51.224;-2.328;2023-02-04T08:37:26;8.40;99.90
65074;DHT22;52218;51.224;-2.328;2023-02-04T08:41:11;8.50;99.90
65074;DHT22;52218;51.224;-2.328;2023-02-04T08:44:53;8.50;99.90
65074;DHT22;52218;51.224;-2.328;2023-02-04T08:48:35;8.50;99.90
65074;DHT22;52218;51.224;-2.328;2023-02-04T08:52:18;8.50;99.90
65074;DHT22;52218;51.224;-2.328;2023-02-04T08:56:00;8.50;99.90
65074;DHT22;52218;51.224;-2.328;2023-02-04T08:59:41;8.50;99.90
65074;DHT22;52218;51.224;-2.328;2023-02-04T09:03:24;8.50;99.90
65074;DHT22;52218;51.224;-2.328;2023-02-04T09:07:05;8.50;99.90
65074;DHT22;52218;51.224;-2.328;2023-02-04T09:10:47;8.50;99.90
65074;DHT22;52218;51.224;-2.328;2023-02-04T09:14:29;8.60;99.90
65074;DHT22;52218;51.224;-2.328;2023-02-04T09:18:11;8.60;99.90
65074;DHT22;52218;51.224;-2.328;2023-02-04T09:22:02;8.60;99.90
65074;DHT22;52218;51.224;-2.328;2023-02-04T09:25:45;8.60;99.90
65074;DHT22;52218;51.224;-2.328;2023-02-04T09:29:27;8.60;99.90
65074;DHT22;52218;51.224;-2.328;2023-02-04T09:33:10;8.60;99.90
65074;DHT22;52218;51.224;-2.328;2023-02-04T09:36:52;8.60;99.90
65074;DHT22;52218;51.224;-2.328;2023-02-04T09:40:40;8.60;99.90
65074;DHT22;52218;51.224;-2.328;2023-02-04T09:44:25;8.60;99.90
65074;DHT22;52218;51.224;-2.328;2023-02-04T09:48:10;8.60;99.90
65074;DHT22;52218;51.224;-2.328;2023-02-04T09:51:54;8.70;99.90
65074;DHT22;52218;51.224;-2.328;2023-02-04T09:55:38;8.70;99.90
65074;DHT22;52218;51.224;-2.328;2023-02-04T09:59:22;8.70;99.90
65074;DHT22;52218;51.224;-2.328;2023-02-04T10:03:14;8.80;99.90
65074;DHT22;52218;51.224;-2.328;2023-02-04T10:06:57;8.80;99.90
65074;DHT22;52218;51.224;-2.328;2023-02-04T10:10:40;8.80;99.90
65074;DHT22;52218;51.224;-2.328;2023-02-04T10:14:22;8.80;99.90
65074;DHT22;52218;51.224;-2.328;2023-02-04T10:18:06;8.90;99.90
65074;DHT22;52218;51.224;-2.328;2023-02-04T10:21:49;8.90;99.90
65074;DHT22;52218;51.224;-2.328;2023-02-04T10:25:31;8.90;99.90
65074;DHT22;52218;51.224;-2.328;2023-02-04T10:32:57;9.00;99.90
65074;DHT22;52218;51.224;-2.328;2023-02-04T10:36:42;9.00;99.90
65074;DHT22;52218;51.224;-2.328;2023-02-04T10:40:30;9.10;99.90
65074;DHT22;52218;51.224;-2.328;2023-02-04T10:44:15;9.10;99.90
65074;DHT22;52218;51.224;-2.328;2023-02-04T10:47:57;9.10;99.90
65074;DHT22;52218;51.224;-2.328;2023-02-04T10:51:39;9.10;99.90
65074;DHT22;52218;51.224;-2.328;2023-02-04T10:55:23;9.20;99.90
65074;DHT22;52218;51.224;-2.328;2023-02-04T10:59:07;9.20;99.90
65074;DHT22;52218;51.224;-2.328;2023-02-04T11:03:08;9.20;99.90
65074;DHT22;52218;51.224;-2.328;2023-02-04T11:06:51;9.20;99.90
65074;DHT22;52218;51.224;-2.328;2023-02-04T11:10:34;9.20;99.90
65074;DHT22;52218;51.224;-2.328;2023-02-04T11:14:28;9.30;99.90
65074;DHT22;52218;51.224;-2.328;2023-02-04T11:18:42;9.30;99.90
65074;DHT22;52218;51.224;-2.328;2023-02-04T11:22:45;9.40;99.90
65074;DHT22;52218;51.224;-2.328;2023-02-04T11:26:51;9.40;99.90
65074;DHT22;52218;51.224;-2.328;2023-02-04T11:30:34;9.40;99.90
65074;DHT22;52218;51.224;-2.328;2023-02-04T11:38:02;9.40;99.90
65074;DHT22;52218;51.224;-2.328;2023-02-04T11:41:44;9.40;99.90
65074;DHT22;52218;51.224;-2.328;2023-02-04T11:45:33;9.40;99.90
65074;DHT22;52218;51.224;-2.328;2023-02-04T11:49:18;9.40;99.90
65074;DHT22;52218;51.224;-2.328;2023-02-04T11:53:01;9.40;99.90
65074;DHT22;52218;51.224;-2.328;2023-02-04T11:56:44;9.50;99.90
65074;DHT22;52218;51.224;-2.328;2023-02-04T12:00:31;9.50;99.90
65074;DHT22;52218;51.224;-2.328;2023-02-04T12:04:23;9.50;99.90
65074;DHT22;52218;51.224;-2.328;2023-02-04T12:08:23;9.50;99.90
65074;DHT22;52218;51.224;-2.328;2023-02-04T12:12:05;9.50;99.90
65074;DHT22;52218;51.224;-2.328;2023-02-04T12:16:03;9.50;99.90
65074;DHT22;52218;51.224;-2.328;2023-02-04T12:19:45;9.50;99.90
65074;DHT22;52218;51.224;-2.328;2023-02-04T12:23:28;9.50;99.90
65074;DHT22;52218;51.224;-2.328;2023-02-04T12:27:10;9.50;99.90
65074;DHT22;52218;51.224;-2.328;2023-02-04T12:30:52;9.50;99.90
65074;DHT22;52218;51.224;-2.328;2023-02-04T12:34:34;9.60;99.90
65074;DHT22;52218;51.224;-2.328;2023-02-04T12:38:17;9.60;99.90
65074;DHT22;52218;51.224;-2.328;2023-02-04T12:42:01;9.70;99.90
65074;DHT22;52218;51.224;-2.328;2023-02-04T12:45:45;9.70;99.90
65074;DHT22;52218;51.224;-2.328;2023-02-04T12:49:30;9.70;99.90
65074;DHT22;52218;51.224;-2.328;2023-02-04T12:53:12;9.80;99.90
65074;DHT22;52218;51.224;-2.328;2023-02-04T12:56:54;9.80;99.90
65074;DHT22;52218;51.224;-2.328;2023-02-04T13:00:41;9.80;99.90
65074;DHT22;52218;51.224;-2.328;2023-02-04T13:04:23;9.80;99.90
65074;DHT22;52218;51.224;-2.328;2023-02-04T13:08:05;9.70;99.90
65074;DHT22;52218;51.224;-2.328;2023-02-04T13:11:47;9.70;99.90
65074;DHT22;52218;51.224;-2.328;2023-02-04T13:15:29;9.70;99.90
65074;DHT22;52218;51.224;-2.328;2023-02-04T13:19:12;9.70;99.90
65074;DHT22;52218;51.224;-2.328;2023-02-04T13:22:54;9.70;99.90
65074;DHT22;52218;51.224;-2.328;2023-02-04T13:26:35;9.70;99.90
65074;DHT22;52218;51.224;-2.328;2023-02-04T13:30:17;9.70;99.90
65074;DHT22;52218;51.224;-2.328;2023-02-04T13:34:00;9.70;99.90
65074;DHT22;52218;51.224;-2.328;2023-02-04T13:37:41;9.70;99.90
65074;DHT22;52218;51.224;-2.328;2023-02-04T13:41:23;9.70;99.90
65074;DHT22;52218;51.224;-2.328;2023-02-04T13:45:06;9.70;99.90
65074;DHT22;52218;51.224;-2.328;2023-02-04T13:48:51;9.70;99.90
65074;DHT22;52218;51.224;-2.328;2023-02-04T13:52:33;9.70;99.90
65074;DHT22;52218;51.224;-2.328;2023-02-04T13:56:15;9.70;99.90
65074;DHT22;52218;51.224;-2.328;2023-02-04T13:59:57;9.70;99.90
65074;DHT22;52218;51.224;-2.328;2023-02-04T14:03:39;9.70;99.90
65074;DHT22;52218;51.224;-2.328;2023-02-04T14:07:21;9.70;99.90
65074;DHT22;52218;51.224;-2.328;2023-02-04T14:11:04;9.70;99.90
65074;DHT22;52218;51.224;-2.328;2023-02-04T14:14:46;9.70;99.90
65074;DHT22;52218;51.224;-2.328;2023-02-04T14:18:28;9.70;99.90
65074;DHT22;52218;51.224;-2.328;2023-02-04T14:22:10;9.70;99.90
65074;DHT22;52218;51.224;-2.328;2023-02-04T14:25:53;9.70;99.90
65074;DHT22;52218;51.224;-2.328;2023-02-04T14:29:35;9.60;99.90
65074;DHT22;52218;51.224;-2.328;2023-02-04T14:33:17;9.70;99.90
65074;DHT22;52218;51.224;-2.328;2023-02-04T14:37:01;9.70;99.90
65074;DHT22;52218;51.224;-2.328;2023-02-04T14:40:43;9.60;99.90
65074;DHT22;52218;51.224;-2.328;2023-02-04T14:44:26;9.70;99.90
65074;DHT22;52218;51.224;-2.328;2023-02-04T14:48:08;9.70;99.90
65074;DHT22;52218;51.224;-2.328;2023-02-04T14:51:50;9.70;99.90
65074;DHT22;52218;51.224;-2.328;2023-02-04T14:55:32;9.70;99.90
65074;DHT22;52218;51.224;-2.328;2023-02-04T14:59:14;9.70;99.90
65074;DHT22;52218;51.224;-2.328;2023-02-04T15:02:56;9.70;99.90
65074;DHT22;52218;51.224;-2.328;2023-02-04T15:06:38;9.70;99.90
65074;DHT22;52218;51.224;-2.328;2023-02-04T15:10:20;9.70;99.90
65074;DHT22;52218;51.224;-2.328;2023-02-04T15:14:05;9.70;99.90
65074;DHT22;52218;51.224;-2.328;2023-02-04T15:17:50;9.70;99.90
65074;DHT22;52218;51.224;-2.328;2023-02-04T15:21:32;9.70;99.90
65074;DHT22;52218;51.224;-2.328;2023-02-04T15:25:14;9.70;99.90
65074;DHT22;52218;51.224;-2.328;2023-02-04T15:28:56;9.70;99.90
65074;DHT22;52218;51.224;-2.328;2023-02-04T15:32:38;9.70;99.90
65074;DHT22;52218;51.224;-2.328;2023-02-04T15:36:22;9.70;99.90
65074;DHT22;52218;51.224;-2.328;2023-02-04T15:40:05;9.70;99.90
65074;DHT22;52218;51.224;-2.328;2023-02-04T15:43:47;9.70;99.90
65074;DHT22;52218;51.224;-2.328;2023-02-04T15:47:30;9.70;99.90
65074;DHT22;52218;51.224;-2.328;2023-02-04T15:51:12;9.70;99.90
65074;DHT22;52218;51.224;-2.328;2023-02-04T15:54:54;9.70;99.90
65074;DHT22;52218;51.224;-2.328;2023-02-04T15:58:36;9.70;99.90
65074;DHT22;52218;51.224;-2.328;2023-02-04T16:02:18;9.70;99.90
65074;DHT22;52218;51.224;-2.328;2023-02-04T16:06:01;9.70;99.90
65074;DHT22;52218;51.224;-2.328;2023-02-04T16:09:43;9.60;99.90
65074;DHT22;52218;51.224;-2.328;2023-02-04T16:13:25;9.70;99.90
65074;DHT22;52218;51.224;-2.328;2023-02-04T16:17:06;9.60;99.90
65074;DHT22;52218;51.224;-2.328;2023-02-04T16:20:50;9.60;99.90
65074;DHT22;52218;51.224;-2.328;2023-02-04T16:24:32;9.60;99.90
65074;DHT22;52218;51.224;-2.328;2023-02-04T16:28:14;9.50;99.90
65074;DHT22;52218;51.224;-2.328;2023-02-04T16:31:56;9.50;99.90
65074;DHT22;52218;51.224;-2.328;2023-02-04T16:39:40;9.50;99.90
65074;DHT22;52218;51.224;-2.328;2023-02-04T16:43:25;9.50;99.90
65074;DHT22;52218;51.224;-2.328;2023-02-04T16:47:08;9.50;99.90
65074;DHT22;52218;51.224;-2.328;2023-02-04T16:50:50;9.40;99.90
65074;DHT22;52218;51.224;-2.328;2023-02-04T16:54:32;9.40;99.90
65074;DHT22;52218;51.224;-2.328;2023-02-04T16:58:15;9.40;99.90
65074;DHT22;52218;51.224;-2.328;2023-02-04T17:01:57;9.40;99.90
65074;DHT22;52218;51.224;-2.328;2023-02-04T17:05:41;9.30;99.90
65074;DHT22;52218;51.224;-2.328;2023-02-04T17:09:23;9.30;99.90
65074;DHT22;52218;51.224;-2.328;2023-02-04T17:13:06;9.30;99.90
65074;DHT22;52218;51.224;-2.328;2023-02-04T17:16:48;9.30;99.90
65074;DHT22;52218;51.224;-2.328;2023-02-04T17:20:32;9.30;99.90
65074;DHT22;52218;51.224;-2.328;2023-02-04T17:24:14;9.30;99.90
65074;DHT22;52218;51.224;-2.328;2023-02-04T17:27:56;9.30;99.90
65074;DHT22;52218;51.224;-2.328;2023-02-04T17:31:39;9.30;99.90
65074;DHT22;52218;51.224;-2.328;2023-02-04T17:35:23;9.30;99.90
65074;DHT22;52218;51.224;-2.328;2023-02-04T17:39:05;9.20;99.90
65074;DHT22;52218;51.224;-2.328;2023-02-04T17:42:48;9.20;99.90
65074;DHT22;52218;51.224;-2.328;2023-02-04T17:46:30;9.20;99.90
65074;DHT22;52218;51.224;-2.328;2023-02-04T17:50:12;9.20;99.90
65074;DHT22;52218;51.224;-2.328;2023-02-04T17:53:54;9.20;99.90
65074;DHT22;52218;51.224;-2.328;2023-02-04T17:57:36;9.20;99.90
65074;DHT22;52218;51.224;-2.328;2023-02-04T18:01:18;9.20;99.90
65074;DHT22;52218;51.224;-2.328;2023-02-04T18:05:12;9.20;99.90
65074;DHT22;52218;51.224;-2.328;2023-02-04T18:08:55;9.20;99.90
65074;DHT22;52218;51.224;-2.328;2023-02-04T18:12:42;9.20;99.90
65074;DHT22;52218;51.224;-2.328;2023-02-04T18:16:27;9.20;99.90
65074;DHT22;52218;51.224;-2.328;2023-02-04T18:20:18;9.20;99.90
65074;DHT22;52218;51.224;-2.328;2023-02-04T18:27:45;9.20;99.90
65074;DHT22;52218;51.224;-2.328;2023-02-04T18:31:36;9.10;99.90
65074;DHT22;52218;51.224;-2.328;2023-02-04T18:35:43;9.10;99.90
65074;DHT22;52218;51.224;-2.328;2023-02-04T18:39:29;9.20;99.90
65074;DHT22;52218;51.224;-2.328;2023-02-04T18:43:25;9.10;99.90
65074;DHT22;52218;51.224;-2.328;2023-02-04T18:47:31;9.10;99.90
65074;DHT22;52218;51.224;-2.328;2023-02-04T18:51:23;9.10;99.90
65074;DHT22;52218;51.224;-2.328;2023-02-04T18:55:35;9.10;99.90
65074;DHT22;52218;51.224;-2.328;2023-02-04T18:59:18;9.10;99.90
65074;DHT22;52218;51.224;-2.328;2023-02-04T19:03:17;9.10;99.90
65074;DHT22;52218;51.224;-2.328;2023-02-04T19:07:00;9.10;99.90
65074;DHT22;52218;51.224;-2.328;2023-02-04T19:10:42;9.10;99.90
65074;DHT22;52218;51.224;-2.328;2023-02-04T19:14:37;9.10;99.90
65074;DHT22;52218;51.224;-2.328;2023-02-04T19:18:31;9.10;99.90
65074;DHT22;52218;51.224;-2.328;2023-02-04T19:34:22;9.00;99.90
65074;DHT22;52218;51.224;-2.328;2023-02-04T19:42:28;9.10;99.90
65074;DHT22;52218;51.224;-2.328;2023-02-04T19:46:23;9.10;99.90
65074;DHT22;52218;51.224;-2.328;2023-02-04T19:54:32;9.10;99.90
65074;DHT22;52218;51.224;-2.328;2023-02-04T20:05:48;9.10;99.90
65074;DHT22;52218;51.224;-2.328;2023-02-04T20:09:33;9.10;99.90
65074;DHT22;52218;51.224;-2.328;2023-02-04T20:13:18;9.10;99.90
65074;DHT22;52218;51.224;-2.328;2023-02-04T20:17:03;9.10;99.90
65074;DHT22;52218;51.224;-2.328;2023-02-04T20:20:51;9.10;99.90
65074;DHT22;52218;51.224;-2.328;2023-02-04T20:24:38;9.10;99.90
65074;DHT22;52218;51.224;-2.328;2023-02-04T20:28:23;9.10;99.90
65074;DHT22;52218;51.224;-2.328;2023-02-04T20:32:20;9.10;99.90
65074;DHT22;52218;51.224;-2.328;2023-02-04T20:40:36;9.00;99.90
65074;DHT22;52218;51.224;-2.328;2023-02-04T20:44:38;8.90;99.90
65074;DHT22;52218;51.224;-2.328;2023-02-04T20:48:36;8.90;99.90
65074;DHT22;52218;51.224;-2.328;2023-02-04T20:56:26;8.80;99.90
65074;DHT22;52218;51.224;-2.328;2023-02-04T21:00:13;8.80;99.90
65074;DHT22;52218;51.224;-2.328;2023-02-04T21:03:56;8.80;99.90
65074;DHT22;52218;51.224;-2.328;2023-02-04T21:07:38;8.70;99.90
65074;DHT22;52218;51.224;-2.328;2023-02-04T21:11:21;8.60;99.90
65074;DHT22;52218;51.224;-2.328;2023-02-04T21:15:03;8.50;99.90
65074;DHT22;52218;51.224;-2.328;2023-02-04T21:18:45;8.50;99.90
65074;DHT22;52218;51.224;-2.328;2023-02-04T21:22:28;8.40;99.90
65074;DHT22;52218;51.224;-2.328;2023-02-04T21:26:10;8.30;99.90
65074;DHT22;52218;51.224;-2.328;2023-02-04T21:29:52;8.30;99.90
65074;DHT22;52218;51.224;-2.328;2023-02-04T21:33:34;8.30;99.90
65074;DHT22;52218;51.224;-2.328;2023-02-04T21:37:16;8.30;99.90
65074;DHT22;52218;51.224;-2.328;2023-02-04T21:40:58;8.30;99.90
65074;DHT22;52218;51.224;-2.328;2023-02-04T21:44:40;8.20;99.90
65074;DHT22;52218;51.224;-2.328;2023-02-04T21:48:22;8.20;99.90
65074;DHT22;52218;51.224;-2.328;2023-02-04T21:52:04;8.10;99.90
65074;DHT22;52218;51.224;-2.328;2023-02-04T21:55:46;8.00;99.90
65074;DHT22;52218;51.224;-2.328;2023-02-04T21:59:28;8.00;99.90
65074;DHT22;52218;51.224;-2.328;2023-02-04T22:03:10;7.90;99.90
65074;DHT22;52218;51.224;-2.328;2023-02-04T22:06:56;7.90;99.90
65074;DHT22;52218;51.224;-2.328;2023-02-04T22:10:38;7.90;99.90
65074;DHT22;52218;51.224;-2.328;2023-02-04T22:14:20;7.90;99.90
65074;DHT22;52218;51.224;-2.328;2023-02-04T22:18:02;7.90;99.90
65074;DHT22;52218;51.224;-2.328;2023-02-04T22:21:44;7.90;99.90
65074;DHT22;52218;51.224;-2.328;2023-02-04T22:25:26;7.90;99.90
65074;DHT22;52218;51.224;-2.328;2023-02-04T22:29:08;7.90;99.90
65074;DHT22;52218;51.224;-2.328;2023-02-04T22:32:50;8.00;99.90
65074;DHT22;52218;51.224;-2.328;2023-02-04T22:36:32;7.90;99.90
65074;DHT22;52218;51.224;-2.328;2023-02-04T22:40:14;7.90;99.90
65074;DHT22;52218;51.224;-2.328;2023-02-04T22:43:56;7.90;99.90
65074;DHT22;52218;51.224;-2.328;2023-02-04T22:47:38;7.90;99.90
65074;DHT22;52218;51.224;-2.328;2023-02-04T22:51:20;7.90;99.90
65074;DHT22;52218;51.224;-2.328;2023-02-04T22:55:03;7.90;99.90
65074;DHT22;52218;51.224;-2.328;2023-02-04T22:58:45;7.80;99.90
65074;DHT22;52218;51.224;-2.328;2023-02-04T23:02:27;7.80;99.90
65074;DHT22;52218;51.224;-2.328;2023-02-04T23:06:09;7.70;99.90
65074;DHT22;52218;51.224;-2.328;2023-02-04T23:09:51;7.70;99.90
65074;DHT22;52218;51.224;-2.328;2023-02-04T23:13:33;7.60;99.90
65074;DHT22;52218;51.224;-2.328;2023-02-04T23:17:17;7.60;99.90
65074;DHT22;52218;51.224;-2.328;2023-02-04T23:20:59;7.70;99.90
65074;DHT22;52218;51.224;-2.328;2023-02-04T23:24:41;7.70;99.90
65074;DHT22;52218;51.224;-2.328;2023-02-04T23:28:23;7.70;99.90
65074;DHT22;52218;51.224;-2.328;2023-02-04T23:32:06;7.70;99.90
65074;DHT22;52218;51.224;-2.328;2023-02-04T23:35:49;7.70;99.90
65074;DHT22;52218;51.224;-2.328;2023-02-04T23:39:31;7.70;99.90
65074;DHT22;52218;51.224;-2.328;2023-02-04T23:43:14;7.80;99.90
65074;DHT22;52218;51.224;-2.328;2023-02-04T23:46:56;7.90;99.90
65074;DHT22;52218;51.224;-2.328;2023-02-04T23:50:38;7.90;99.90
65074;DHT22;52218;51.224;-2.328;2023-02-04T23:54:20;8.00;99.90
65074;DHT22;52218;51.224;-2.328;2023-02-04T23:58:02;8.00;99.90
